createdAt,value
2023-04-11T00:02:20.147Z,12.30
2023-04-11T00:05:07.101Z,12.80
2023-04-11T00:07:52.615Z,12.70
2023-04-11T00:10:38.559Z,12.80
2023-04-11T00:13:26.572Z,12.80
2023-04-11T00:16:12.600Z,13.00
2023-04-11T00:18:58.554Z,12.70
2023-04-11T00:21:45.248Z,12.90
2023-04-11T00:24:31.206Z,12.70
2023-04-11T00:27:16.942Z,12.60
2023-04-11T00:30:05.411Z,12.20
2023-04-11T00:32:51.305Z,12.20
2023-04-11T00:35:39.471Z,12.50
2023-04-11T00:38:25.484Z,12.40
2023-04-11T00:41:11.033Z,12.10
2023-04-11T00:43:57.757Z,12.30
2023-04-11T00:46:46.481Z,12.30
2023-04-11T00:49:32.449Z,12.10
2023-04-11T00:52:19.419Z,12.00
2023-04-11T00:55:07.021Z,12.20
2023-04-11T00:57:55.117Z,12.00
2023-04-11T01:00:41.515Z,12.00
2023-04-11T01:03:30.212Z,12.00
2023-04-11T01:06:19.673Z,12.00
2023-04-11T01:09:05.397Z,12.10
2023-04-11T01:11:51.995Z,12.00
2023-04-11T01:14:38.604Z,12.00
2023-04-11T01:17:25.861Z,12.20
2023-04-11T01:20:13.463Z,12.30
2023-04-11T01:23:01.991Z,12.20
2023-04-11T01:25:49.558Z,12.30
2023-04-11T01:28:35.323Z,12.30
2023-04-11T01:31:22.990Z,12.30
2023-04-11T01:34:12.800Z,12.50
2023-04-11T01:36:58.940Z,12.40
2023-04-11T01:39:44.472Z,12.30
2023-04-11T01:42:33.459Z,12.50
2023-04-11T01:45:20.965Z,12.40
2023-04-11T01:48:08.410Z,12.20
2023-04-11T01:50:56.221Z,12.00
2023-04-11T01:53:41.858Z,12.10
2023-04-11T01:56:27.865Z,12.30
2023-04-11T01:59:15.546Z,12.30
2023-04-11T02:02:01.285Z,12.30
2023-04-11T02:04:47.072Z,12.10
2023-04-11T02:07:33.983Z,12.10
2023-04-11T02:10:19.504Z,12.30
2023-04-11T02:13:05.258Z,12.30
2023-04-11T02:15:53.024Z,12.20
2023-04-11T02:18:39.032Z,12.30
2023-04-11T02:21:24.621Z,12.40
2023-04-11T02:24:10.095Z,12.30
2023-04-11T02:26:56.606Z,12.50
2023-04-11T02:29:43.997Z,12.40
2023-04-11T02:32:31.386Z,12.00
2023-04-11T02:35:17.572Z,11.80
2023-04-11T02:38:02.954Z,11.80
2023-04-11T02:40:49.383Z,11.80
2023-04-11T02:43:35.572Z,11.70
2023-04-11T02:46:22.503Z,11.60
2023-04-11T02:49:10.094Z,11.50
2023-04-11T02:51:56.646Z,11.70
2023-04-11T02:54:42.471Z,11.90
2023-04-11T02:57:28.235Z,11.80
2023-04-11T03:00:15.536Z,11.90
2023-04-11T03:03:12.099Z,12.00
2023-04-11T03:06:03.444Z,11.90
2023-04-11T03:08:50.178Z,11.80
2023-04-11T03:11:36.181Z,11.80
2023-04-11T03:14:23.085Z,11.90
2023-04-11T03:17:08.463Z,12.00
2023-04-11T03:19:55.265Z,12.00
2023-04-11T03:22:43.874Z,11.90
2023-04-11T03:25:29.687Z,11.90
2023-04-11T03:28:15.700Z,11.80
2023-04-11T03:31:01.494Z,11.60
2023-04-11T03:33:47.325Z,11.50
2023-04-11T03:36:33.029Z,11.50
2023-04-11T03:39:25.515Z,11.30
2023-04-11T03:42:12.729Z,11.50
2023-04-11T03:44:58.828Z,11.60
2023-04-11T03:47:45.250Z,11.70
2023-04-11T03:50:33.889Z,11.70
2023-04-11T03:53:21.751Z,11.80
2023-04-11T03:56:12.643Z,11.90
2023-04-11T03:58:58.643Z,11.80
2023-04-11T04:01:49.605Z,11.70
2023-04-11T04:04:36.672Z,11.70
2023-04-11T04:07:35.454Z,11.80
2023-04-11T04:10:34.729Z,11.90
2023-04-11T04:13:22.142Z,12.10
2023-04-11T04:16:21.149Z,12.10
2023-04-11T04:19:12.268Z,12.00
2023-04-11T04:22:01.803Z,11.90
2023-04-11T04:24:52.938Z,11.90
2023-04-11T04:27:44.368Z,12.10
2023-04-11T04:30:33.951Z,12.20
2023-04-11T04:33:28.099Z,12.20
2023-04-11T04:36:17.932Z,11.90
2023-04-11T04:39:05.526Z,11.70
2023-04-11T04:42:01.537Z,11.50
2023-04-11T04:44:55.828Z,11.60
2023-04-11T04:47:43.030Z,11.80
2023-04-11T04:50:29.353Z,11.90
2023-04-11T04:53:17.670Z,11.60
2023-04-11T04:56:08.628Z,11.60
2023-04-11T04:58:59.998Z,11.60
2023-04-11T05:01:51.693Z,11.60
2023-04-11T05:04:50.222Z,11.50
2023-04-11T05:07:36.522Z,11.40
2023-04-11T05:10:22.738Z,11.40
2023-04-11T05:13:09.091Z,11.30
2023-04-11T05:15:56.190Z,11.30
2023-04-11T05:18:45.468Z,11.20
2023-04-11T05:21:33.113Z,11.30
2023-04-11T05:24:19.246Z,11.20
2023-04-11T05:27:04.877Z,11.30
2023-04-11T05:29:51.479Z,11.30
2023-04-11T05:32:37.901Z,11.20
2023-04-11T05:35:24.378Z,11.40
2023-04-11T05:38:14.663Z,11.80
2023-04-11T05:41:00.435Z,12.50
2023-04-11T05:43:46.140Z,13.40
2023-04-11T05:46:35.793Z,13.60
2023-04-11T05:49:21.976Z,14.30
2023-04-11T05:52:08.041Z,14.80
2023-04-11T05:54:55.456Z,15.20
2023-04-11T05:57:41.281Z,16.10
2023-04-11T06:00:30.985Z,17.10
2023-04-11T06:03:17.786Z,17.80
2023-04-11T06:06:04.508Z,18.40
2023-04-11T06:08:51.261Z,18.30
2023-04-11T06:11:39.000Z,18.60
2023-04-11T06:14:24.854Z,18.80
2023-04-11T06:17:10.659Z,19.00
2023-04-11T06:19:56.122Z,18.80
2023-04-11T06:22:41.827Z,19.60
2023-04-11T06:25:27.246Z,20.30
2023-04-11T06:28:14.412Z,20.60
2023-04-11T06:30:59.862Z,20.10
2023-04-11T06:33:45.398Z,20.50
2023-04-11T06:36:31.549Z,21.00
2023-04-11T06:39:17.594Z,21.80
2023-04-11T06:42:03.834Z,22.00
2023-04-11T06:44:53.017Z,23.00
2023-04-11T06:47:38.909Z,23.10
2023-04-11T06:50:24.305Z,23.60
2023-04-11T06:53:10.440Z,24.00
2023-04-11T06:55:56.024Z,24.80
2023-04-11T06:58:41.572Z,23.80
2023-04-11T07:01:35.428Z,23.70
2023-04-11T07:04:22.139Z,23.40
2023-04-11T07:07:08.072Z,23.50
2023-04-11T07:09:53.930Z,22.90
2023-04-11T07:12:39.488Z,21.50
2023-04-11T07:15:25.323Z,21.20
2023-04-11T07:18:13.164Z,20.50
2023-04-11T07:20:59.024Z,19.60
2023-04-11T07:23:44.874Z,19.20
2023-04-11T07:26:32.615Z,19.20
2023-04-11T07:29:18.658Z,20.10
2023-04-11T07:32:04.417Z,21.20
2023-04-11T07:34:52.088Z,21.30
2023-04-11T07:37:38.378Z,20.70
2023-04-11T07:40:23.919Z,20.10
2023-04-11T07:43:09.814Z,19.80
2023-04-11T07:45:57.276Z,19.90
2023-04-11T07:48:43.272Z,20.10
2023-04-11T07:51:31.372Z,20.70
2023-04-11T07:54:17.768Z,21.00
2023-04-11T07:57:03.645Z,20.70
2023-04-11T07:59:49.723Z,20.70
2023-04-11T08:02:35.668Z,20.40
2023-04-11T08:05:21.979Z,19.70
2023-04-11T08:08:09.568Z,18.90
2023-04-11T08:10:55.054Z,18.60
2023-04-11T08:13:40.778Z,17.90
2023-04-11T08:16:26.669Z,17.20
2023-04-11T08:19:13.171Z,17.10
2023-04-11T08:21:59.332Z,17.30
2023-04-11T08:24:46.852Z,17.50
2023-04-11T08:27:32.791Z,17.80
2023-04-11T08:30:18.606Z,17.90
2023-04-11T08:33:04.864Z,18.30
2023-04-11T08:35:50.937Z,19.00
2023-04-11T08:38:36.679Z,18.70
2023-04-11T08:41:23.874Z,18.90
2023-04-11T08:44:11.907Z,19.20
2023-04-11T08:46:57.870Z,18.70
2023-04-11T08:49:43.516Z,18.50
2023-04-11T08:52:30.964Z,18.50
2023-04-11T08:55:16.827Z,18.30
2023-04-11T08:58:03.973Z,18.40
2023-04-11T09:00:49.945Z,18.40
2023-04-11T09:03:51.542Z,17.80
2023-04-11T09:06:40.449Z,17.10
2023-04-11T09:09:31.030Z,16.50
2023-04-11T09:12:21.673Z,16.10
2023-04-11T09:15:20.027Z,16.00
2023-04-11T09:18:05.986Z,16.80
2023-04-11T09:20:59.400Z,18.10
2023-04-11T09:23:45.668Z,18.30
2023-04-11T09:26:31.307Z,18.20
2023-04-11T09:29:36.958Z,18.40
2023-04-11T09:32:33.767Z,17.90
2023-04-11T09:35:24.044Z,17.30
2023-04-11T09:38:10.063Z,17.20
2023-04-11T09:40:56.632Z,18.10
2023-04-11T09:43:50.778Z,19.00
2023-04-11T09:46:37.449Z,20.00
2023-04-11T09:49:25.789Z,20.80
2023-04-11T09:52:11.877Z,21.60
2023-04-11T09:54:58.103Z,22.30
2023-04-11T09:57:47.709Z,22.70
2023-04-11T10:00:33.572Z,23.40
2023-04-11T10:03:22.816Z,23.50
2023-04-11T10:06:22.926Z,22.80
2023-04-11T10:09:11.487Z,23.30
2023-04-11T10:11:57.591Z,23.90
2023-04-11T10:14:45.349Z,23.40
2023-04-11T10:17:31.152Z,23.50
2023-04-11T10:20:47.353Z,23.90
2023-04-11T10:24:08.795Z,24.20
2023-04-11T10:26:57.921Z,23.50
2023-04-11T10:29:51.824Z,22.50
2023-04-11T10:32:38.234Z,21.70
2023-04-11T10:35:23.925Z,21.20
2023-04-11T10:38:48.763Z,21.40
2023-04-11T10:41:36.388Z,20.90
2023-04-11T10:44:22.626Z,21.30
2023-04-11T10:47:17.642Z,21.90
2023-04-11T10:50:32.523Z,22.40
2023-04-11T10:53:37.014Z,22.90
2023-04-11T10:56:52.703Z,24.70
2023-04-11T10:59:59.365Z,26.00
2023-04-11T11:02:46.494Z,24.20
2023-04-11T11:05:32.268Z,23.50
2023-04-11T11:08:27.243Z,22.90
2023-04-11T11:11:13.997Z,22.40
2023-04-11T11:14:01.108Z,22.30
2023-04-11T11:16:48.682Z,22.20
2023-04-11T11:19:35.550Z,22.30
2023-04-11T11:22:28.610Z,21.50
2023-04-11T11:25:14.483Z,21.20
2023-04-11T11:28:05.555Z,20.90
2023-04-11T11:30:54.880Z,21.80
2023-04-11T11:33:43.092Z,21.90
2023-04-11T11:36:29.375Z,22.40
2023-04-11T11:39:15.690Z,23.90
2023-04-11T11:42:01.668Z,24.00
2023-04-11T11:44:47.525Z,24.00
2023-04-11T11:47:42.056Z,25.20
2023-04-11T11:50:30.603Z,24.10
2023-04-11T11:53:16.861Z,24.40
2023-04-11T11:56:12.778Z,23.90
2023-04-11T11:58:58.973Z,23.80
2023-04-11T12:01:46.668Z,24.30
2023-04-11T12:04:33.510Z,24.50
2023-04-11T12:07:22.939Z,24.30
2023-04-11T12:10:11.967Z,23.70
2023-04-11T12:12:58.087Z,23.30
2023-04-11T12:15:46.728Z,23.50
2023-04-11T12:18:32.793Z,23.30
2023-04-11T12:21:18.913Z,22.60
2023-04-11T12:24:07.448Z,22.60
2023-04-11T12:27:06.455Z,22.20
2023-04-11T12:29:53.712Z,20.90
2023-04-11T12:32:39.404Z,20.30
2023-04-11T12:35:24.959Z,19.80
2023-04-11T12:38:13.244Z,19.80
2023-04-11T12:41:26.372Z,20.20
2023-04-11T12:44:08.043Z,20.80
2023-04-11T12:46:53.623Z,21.00
2023-04-11T12:49:39.971Z,20.80
2023-04-11T12:52:25.946Z,21.30
2023-04-11T12:55:13.823Z,22.10
2023-04-11T12:58:02.162Z,22.10
2023-04-11T13:00:47.810Z,21.70
2023-04-11T13:03:33.735Z,22.50
2023-04-11T13:06:20.244Z,23.80
2023-04-11T13:09:07.790Z,24.60
2023-04-11T13:11:53.544Z,24.90
2023-04-11T13:14:40.778Z,25.20
2023-04-11T13:17:26.612Z,24.20
2023-04-11T13:20:12.981Z,23.50
2023-04-11T13:22:58.977Z,23.10
2023-04-11T13:25:45.000Z,22.90
2023-04-11T13:28:33.689Z,22.60
2023-04-11T13:31:26.820Z,22.70
2023-04-11T13:34:13.048Z,22.30
2023-04-11T13:36:59.063Z,22.40
2023-04-11T13:39:44.826Z,22.80
2023-04-11T13:42:30.611Z,22.50
2023-04-11T13:45:16.375Z,22.20
2023-04-11T13:48:04.128Z,21.70
2023-04-11T13:50:49.760Z,21.90
2023-04-11T13:53:35.454Z,21.60
2023-04-11T13:56:21.058Z,21.00
2023-04-11T13:59:06.686Z,21.30
2023-04-11T14:01:52.950Z,20.90
2023-04-11T14:04:40.122Z,20.90
2023-04-11T14:07:26.155Z,21.50
2023-04-11T14:10:12.087Z,21.70
2023-04-11T14:12:58.055Z,21.60
2023-04-11T14:15:44.978Z,21.90
2023-04-11T14:18:30.876Z,21.80
2023-04-11T14:21:18.258Z,21.60
2023-04-11T14:24:04.012Z,21.40
2023-04-11T14:26:50.345Z,21.40
2023-04-11T14:29:37.618Z,21.70
2023-04-11T14:32:23.541Z,22.10
2023-04-11T14:35:09.971Z,21.80
2023-04-11T14:37:57.845Z,22.00
2023-04-11T14:40:44.346Z,21.20
2023-04-11T14:43:30.174Z,21.90
2023-04-11T14:46:16.066Z,21.60
2023-04-11T14:49:02.150Z,21.80
2023-04-11T14:51:48.309Z,21.40
2023-04-11T14:54:35.843Z,21.30
2023-04-11T14:57:23.012Z,21.40
2023-04-11T15:00:15.487Z,21.50
2023-04-11T15:03:01.654Z,21.70
2023-04-11T15:05:47.773Z,21.40
2023-04-11T15:08:33.971Z,21.70
2023-04-11T15:11:21.305Z,21.60
2023-04-11T15:14:10.030Z,21.70
2023-04-11T15:16:55.842Z,22.00
2023-04-11T15:19:42.164Z,22.00
2023-04-11T15:22:28.062Z,21.10
2023-04-11T15:25:15.055Z,20.30
2023-04-11T15:28:02.294Z,19.70
2023-04-11T15:30:50.018Z,19.20
2023-04-11T15:33:36.971Z,19.00
2023-04-11T15:36:23.380Z,18.30
2023-04-11T15:39:09.398Z,17.60
2023-04-11T15:41:54.908Z,17.30
2023-04-11T15:44:42.426Z,17.10
2023-04-11T15:47:28.109Z,16.90
2023-04-11T15:50:13.735Z,16.90
2023-04-11T15:53:00.115Z,16.90
2023-04-11T15:55:47.790Z,16.90
2023-04-11T15:58:33.990Z,17.20
2023-04-11T16:01:25.726Z,17.40
2023-04-11T16:04:11.835Z,17.30
2023-04-11T16:06:58.342Z,17.70
2023-04-11T16:09:43.905Z,17.60
2023-04-11T16:12:29.637Z,17.60
2023-04-11T16:15:15.652Z,17.50
2023-04-11T16:18:03.100Z,17.20
2023-04-11T16:20:49.233Z,17.20
2023-04-11T16:23:34.682Z,16.70
2023-04-11T16:26:20.690Z,16.60
2023-04-11T16:29:06.537Z,16.80
2023-04-11T16:31:52.723Z,16.90
2023-04-11T16:34:40.632Z,17.20
2023-04-11T16:37:26.925Z,17.10
2023-04-11T16:40:12.545Z,17.10
2023-04-11T16:42:58.219Z,17.10
2023-04-11T16:45:43.945Z,16.80
2023-04-11T16:48:31.721Z,16.60
2023-04-11T16:51:21.358Z,16.80
2023-04-11T16:54:10.838Z,16.80
2023-04-11T16:56:57.398Z,16.70
2023-04-11T16:59:43.180Z,16.60
2023-04-11T17:02:29.899Z,16.70
2023-04-11T17:05:19.138Z,16.80
2023-04-11T17:08:06.329Z,16.90
2023-04-11T17:10:52.101Z,16.90
2023-04-11T17:13:38.627Z,17.00
2023-04-11T17:16:24.275Z,17.20
2023-04-11T17:19:11.025Z,17.00
2023-04-11T17:21:57.598Z,17.30
2023-04-11T17:24:44.735Z,17.20
2023-04-11T17:27:30.775Z,17.20
2023-04-11T17:30:16.910Z,17.30
2023-04-11T17:33:02.798Z,17.30
2023-04-11T17:35:48.534Z,17.30
2023-04-11T17:38:34.235Z,17.20
2023-04-11T17:41:21.524Z,17.00
2023-04-11T17:44:07.220Z,17.00
2023-04-11T17:46:52.766Z,16.70
2023-04-11T17:49:39.024Z,16.70
2023-04-11T17:52:25.475Z,16.70
2023-04-11T17:55:13.039Z,16.60
2023-04-11T17:58:00.226Z,16.60
2023-04-11T18:00:55.684Z,16.70
2023-04-11T18:03:44.300Z,16.60
2023-04-11T18:06:34.232Z,16.40
2023-04-11T18:09:20.615Z,16.60
2023-04-11T18:12:06.455Z,16.50
2023-04-11T18:14:54.285Z,16.50
2023-04-11T18:17:41.338Z,16.50
2023-04-11T18:20:27.380Z,16.50
2023-04-11T18:23:13.327Z,16.40
2023-04-11T18:25:59.056Z,16.50
2023-04-11T18:28:44.824Z,16.40
2023-04-11T18:31:35.160Z,16.50
2023-04-11T18:34:21.608Z,16.40
2023-04-11T18:37:07.663Z,16.50
2023-04-11T18:39:53.771Z,16.60
2023-04-11T18:42:40.408Z,16.50
2023-04-11T18:45:26.226Z,16.50
2023-04-11T18:48:13.697Z,16.40
2023-04-11T18:51:00.220Z,16.40
2023-04-11T18:53:45.871Z,16.50
2023-04-11T18:56:31.817Z,16.30
2023-04-11T18:59:23.783Z,16.10
2023-04-11T19:02:14.067Z,16.00
2023-04-11T19:05:02.054Z,16.10
2023-04-11T19:07:48.053Z,15.80
2023-04-11T19:10:34.171Z,15.70
2023-04-11T19:13:19.888Z,15.60
2023-04-11T19:16:06.336Z,15.50
2023-04-11T19:18:52.030Z,15.50
2023-04-11T19:21:39.697Z,15.30
2023-04-11T19:24:25.451Z,15.60
2023-04-11T19:27:11.601Z,15.60
2023-04-11T19:29:57.678Z,15.70
2023-04-11T19:32:45.683Z,15.50
2023-04-11T19:35:31.715Z,15.70
2023-04-11T19:38:18.790Z,15.60
2023-04-11T19:41:11.850Z,15.80
2023-04-11T19:43:58.103Z,15.90
2023-04-11T19:46:44.336Z,15.80
2023-04-11T19:49:29.933Z,15.70
2023-04-11T19:52:15.603Z,15.60
2023-04-11T19:55:02.800Z,15.70
2023-04-11T19:57:48.751Z,15.80
2023-04-11T20:00:36.293Z,15.60
2023-04-11T20:03:22.586Z,15.50
2023-04-11T20:06:09.634Z,15.70
2023-04-11T20:08:55.626Z,15.90
2023-04-11T20:11:43.747Z,15.60
2023-04-11T20:14:29.196Z,15.40
2023-04-11T20:17:15.876Z,15.50
2023-04-11T20:20:06.071Z,15.20
2023-04-11T20:22:51.579Z,15.00
2023-04-11T20:25:37.628Z,15.10
2023-04-11T20:28:25.658Z,15.00
2023-04-11T20:31:14.125Z,15.00
2023-04-11T20:33:59.992Z,14.90
2023-04-11T20:36:46.721Z,14.90
2023-04-11T20:39:33.067Z,14.80
2023-04-11T20:42:20.569Z,14.80
2023-04-11T20:45:11.006Z,14.50
2023-04-11T20:47:59.680Z,14.60
2023-04-11T20:50:47.215Z,14.60
2023-04-11T20:53:32.790Z,14.70
2023-04-11T20:56:18.539Z,14.40
2023-04-11T20:59:04.550Z,14.60
2023-04-11T21:01:53.584Z,14.40
2023-04-11T21:04:39.413Z,14.60
2023-04-11T21:07:25.035Z,14.60
2023-04-11T21:10:12.300Z,14.60
2023-04-11T21:12:58.211Z,14.40
2023-04-11T21:15:43.668Z,14.40
2023-04-11T21:18:30.578Z,14.50
2023-04-11T21:21:16.431Z,14.40
2023-04-11T21:24:03.412Z,14.50
2023-04-11T21:26:49.259Z,14.60
2023-04-11T21:29:35.066Z,14.40
2023-04-11T21:32:20.822Z,14.40
2023-04-11T21:35:09.490Z,14.50
2023-04-11T21:37:55.136Z,14.40
2023-04-11T21:40:40.603Z,14.70
2023-04-11T21:43:26.750Z,14.50
2023-04-11T21:46:12.529Z,14.50
2023-04-11T21:48:58.459Z,14.60
2023-04-11T21:51:45.742Z,14.50
2023-04-11T21:54:34.158Z,14.50
2023-04-11T21:57:19.903Z,14.40
2023-04-11T22:00:11.301Z,14.10
2023-04-11T22:03:00.440Z,14.00
2023-04-11T22:05:47.127Z,14.10
2023-04-11T22:08:42.201Z,14.20
2023-04-11T22:11:27.755Z,14.10
2023-04-11T22:14:22.281Z,14.00
2023-04-11T22:17:12.162Z,13.80
2023-04-11T22:20:00.661Z,13.70
2023-04-11T22:22:46.511Z,13.80
2023-04-11T22:25:34.683Z,13.70
2023-04-11T22:28:22.315Z,13.80
2023-04-11T22:31:09.549Z,13.70
2023-04-11T22:33:55.517Z,13.70
2023-04-11T22:36:41.075Z,13.70
2023-04-11T22:39:26.731Z,13.50
2023-04-11T22:42:13.577Z,13.50
2023-04-11T22:44:59.767Z,13.60
2023-04-11T22:47:48.317Z,13.40
2023-04-11T22:50:37.434Z,13.00
2023-04-11T22:53:25.023Z,13.10
2023-04-11T22:56:11.036Z,12.80
2023-04-11T22:58:58.542Z,12.70
2023-04-11T23:01:44.760Z,12.70
2023-04-11T23:04:32.450Z,12.80
2023-04-11T23:07:18.697Z,12.70
2023-04-11T23:10:06.481Z,12.70
2023-04-11T23:12:52.710Z,12.80
2023-04-11T23:20:37.417Z,13.10
2023-04-11T23:23:23.075Z,12.90
2023-04-11T23:26:09.293Z,12.70
2023-04-11T23:28:56.374Z,12.80
2023-04-11T23:31:42.268Z,12.80
2023-04-11T23:34:28.267Z,12.80
2023-04-11T23:37:16.887Z,12.50
2023-04-11T23:40:10.824Z,12.50
2023-04-11T23:42:57.949Z,12.50
2023-04-11T23:45:43.905Z,12.70
2023-04-11T23:48:29.229Z,12.70
2023-04-11T23:51:15.980Z,12.60
2023-04-11T23:54:03.266Z,12.40
2023-04-11T23:56:49.296Z,12.30
2023-04-11T23:59:34.899Z,12.10
